Time;durP1;ratioP1;P1;durP2;ratioP2;P2;SDS_P1;SDS_P2;PMS_P1;PMS_P2;Temp;Humidity;BMP_temperature;BMP_pressure;BME280_temperature;BME280_humidity;BME280_pressure;Samples;Min_cycle;Max_cycle;Signal;HPM_P1;HPM_P2
2022/11/09 00:01:03;;;;;;;38.87;17.23;;;;;;;-0.41;100.00;100631.95;1683579;85;21090;-77
2022/11/09 00:03:31;;;;;;;38.33;16.60;;;;;;;-0.41;100.00;100643.91;1683525;83;21111;-76
2022/11/09 00:05:58;;;;;;;33.80;14.90;;;;;;;-0.41;100.00;100650.55;1683616;85;21027;-76
2022/11/09 00:08:27;;;;;;;40.00;16.97;;;;;;;-0.39;100.00;100643.34;1683438;85;21532;-73
2022/11/09 00:10:54;;;;;;;37.77;17.37;;;;;;;-0.37;100.00;100645.03;1693868;85;21124;-77
2022/11/09 00:13:21;;;;;;;40.07;17.47;;;;;;;-0.34;100.00;100644.87;1693472;85;21050;-75
2022/11/09 00:15:48;;;;;;;42.87;18.43;;;;;;;-0.27;100.00;100663.52;1683639;85;21082;-76
2022/11/09 00:18:15;;;;;;;43.70;18.40;;;;;;;-0.24;100.00;100654.89;1694514;83;21118;-76
2022/11/09 00:20:42;;;;;;;39.10;16.93;;;;;;;-0.21;100.00;100664.52;1683397;85;21557;-76
2022/11/09 00:23:09;;;;;;;53.27;21.03;;;;;;;-0.16;100.00;100669.09;1694110;84;21042;-76
2022/11/09 00:25:36;;;;;;;39.47;18.17;;;;;;;-0.15;100.00;100676.59;1693661;85;21027;-76
2022/11/09 00:28:03;;;;;;;38.93;18.33;;;;;;;-0.17;100.00;100674.02;1693714;85;21042;-76
2022/11/09 00:30:30;;;;;;;37.27;16.60;;;;;;;-0.14;100.00;100675.17;1693422;82;21126;-77
2022/11/09 00:32:57;;;;;;;46.10;20.27;;;;;;;-0.13;100.00;100676.02;1683538;85;21059;-76
2022/11/09 00:35:25;;;;;;;44.17;18.43;;;;;;;-0.11;100.00;100689.60;1693409;85;21042;-75
2022/11/09 00:37:54;;;;;;;38.30;17.07;;;;;;;-0.10;100.00;100691.81;1693694;85;21086;-77
2022/11/09 00:40:21;;;;;;;39.37;16.87;;;;;;;-0.12;100.00;100690.56;1693539;85;21051;-76
2022/11/09 00:42:48;;;;;;;37.07;16.07;;;;;;;-0.11;100.00;100690.94;1683562;85;21054;-76
2022/11/09 00:45:15;;;;;;;45.83;19.27;;;;;;;-0.07;100.00;100695.60;1678737;85;20975;-75
2022/11/09 00:47:43;;;;;;;38.40;18.63;;;;;;;-0.10;100.00;100691.33;1666106;85;21021;-75
2022/11/09 00:50:10;;;;;;;39.53;18.60;;;;;;;-0.13;100.00;100690.17;1666018;85;21041;-76
2022/11/09 00:52:37;;;;;;;36.87;17.33;;;;;;;-0.17;100.00;100692.62;1687460;85;21046;-76
2022/11/09 00:55:05;;;;;;;34.83;16.73;;;;;;;-0.20;100.00;100693.63;1687473;85;21052;-75
2022/11/09 00:57:32;;;;;;;35.13;15.67;;;;;;;-0.20;100.00;100696.77;1687538;85;21045;-76
2022/11/09 00:59:59;;;;;;;33.70;15.53;;;;;;;-0.22;100.00;100682.23;1687398;85;21097;-76
2022/11/09 01:02:25;;;;;;;39.20;16.17;;;;;;;-0.22;100.00;100688.03;1687432;85;21460;-76
2022/11/09 01:04:54;;;;;;;35.40;15.00;;;;;;;-0.23;100.00;100684.97;1687102;85;21645;-76
2022/11/09 01:07:22;;;;;;;32.90;14.00;;;;;;;-0.23;100.00;100683.20;1687446;85;21038;-75
2022/11/09 01:09:50;;;;;;;36.77;15.00;;;;;;;-0.20;100.00;100688.80;1682509;85;21124;-76
2022/11/09 01:12:17;;;;;;;38.20;16.40;;;;;;;-0.19;100.00;100695.84;1676982;86;21002;-76
2022/11/09 01:14:46;;;;;;;36.77;16.67;;;;;;;-0.18;100.00;100692.22;1676759;86;21054;-76
2022/11/09 01:17:13;;;;;;;36.07;15.73;;;;;;;-0.22;100.00;100688.88;1676765;86;21057;-76
2022/11/09 01:19:41;;;;;;;34.60;15.43;;;;;;;-0.24;100.00;100687.27;1676937;84;21049;-75
2022/11/09 01:22:08;;;;;;;36.03;15.53;;;;;;;-0.26;100.00;100680.70;1677260;86;21054;-76
2022/11/09 01:24:35;;;;;;;37.33;16.30;;;;;;;-0.27;100.00;100679.45;1677114;86;21053;-77
2022/11/09 01:27:02;;;;;;;36.80;16.17;;;;;;;-0.28;100.00;100684.41;1677198;86;21489;-75
2022/11/09 01:29:30;;;;;;;34.00;15.13;;;;;;;-0.29;100.00;100682.67;1676904;84;21015;-76
2022/11/09 01:31:57;;;;;;;32.37;14.20;;;;;;;-0.29;100.00;100682.67;1676921;86;21074;-76
2022/11/09 01:34:24;;;;;;;37.00;15.93;;;;;;;-0.27;100.00;100698.06;1676652;86;21173;-76
2022/11/09 01:36:51;;;;;;;33.23;16.00;;;;;;;-0.27;100.00;100706.03;1673828;86;21081;-76
2022/11/09 01:39:18;;;;;;;34.13;14.93;;;;;;;-0.27;100.00;100702.89;1677185;84;21050;-76
2022/11/09 01:41:45;;;;;;;32.60;14.60;;;;;;;-0.26;100.00;100714.41;1677359;86;21029;-77
2022/11/09 01:44:19;;;;;;;36.83;15.50;;;;;;;-0.28;100.00;100709.66;1678993;85;21023;-76
2022/11/09 01:46:57;;;;;;;34.77;16.23;;;;;;;-0.32;100.00;100716.06;1681321;85;21078;-75
2022/11/09 01:49:45;;;;;;;35.93;17.50;;;;;;;-0.36;100.00;100714.52;1681474;85;21058;-75
2022/11/09 01:52:33;;;;;;;35.63;16.03;;;;;;;-0.38;100.00;100714.60;1640314;86;21042;-74
2022/11/09 01:55:17;;;;;;;31.40;14.33;;;;;;;-0.42;100.00;100720.55;1597776;90;21574;-75
2022/11/09 01:58:04;;;;;;;30.30;12.95;;;;;;;-0.44;100.00;100713.15;1577611;91;21379;-76
2022/11/09 02:00:33;;;;;;;29.80;13.67;;;;;;;-0.44;100.00;100726.43;1560312;92;21046;-76
2022/11/09 02:03:14;;;;;;;31.07;14.10;;;;;;;-0.42;100.00;100732.52;1578007;91;21076;-76
2022/11/09 02:05:41;;;;;;;32.80;14.03;;;;;;;-0.37;100.00;100736.71;1548080;92;21040;-76
2022/11/09 02:08:12;;;;;;;34.63;15.27;;;;;;;-0.34;100.00;100736.55;1545283;93;21067;-76
2022/11/09 02:11:06;;;;;;;32.87;13.53;;;;;;;-0.33;100.00;100738.28;1551089;92;21124;-76
2022/11/09 02:13:33;;;;;;;45.40;15.47;;;;;;;-0.30;100.00;100740.75;1552729;92;21123;-77
2022/11/09 02:16:02;;;;;;;44.40;17.60;;;;;;;-0.26;100.00;100735.67;1553966;92;21079;-76
2022/11/09 02:18:30;;;;;;;36.73;15.53;;;;;;;-0.20;100.00;100745.95;1554202;92;21083;-77
2022/11/09 02:20:57;;;;;;;32.77;14.17;;;;;;;-0.19;100.00;100737.05;1554696;92;21127;-76
2022/11/09 02:23:25;;;;;;;38.53;15.93;;;;;;;-0.18;100.00;100739.22;1535936;89;21073;-76
2022/11/09 02:25:56;;;;;;;40.20;16.93;;;;;;;-0.16;100.00;100742.20;1555178;88;21090;-77
2022/11/09 02:28:24;;;;;;;35.60;15.40;;;;;;;-0.16;100.00;100744.86;1539368;92;21173;-76
2022/11/09 02:30:53;;;;;;;37.63;15.80;;;;;;;-0.16;100.00;100750.17;1591945;90;21142;-77
2022/11/09 02:33:20;;;;;;;34.67;15.53;;;;;;;-0.16;100.00;100750.17;1591915;89;21077;-77
2022/11/09 02:35:47;;;;;;;35.90;15.97;;;;;;;-0.15;100.00;100742.56;1591922;89;21086;-76
2022/11/09 02:38:15;;;;;;;37.27;16.53;;;;;;;-0.12;100.00;100750.86;1591938;90;21093;-77
2022/11/09 02:40:46;;;;;;;34.87;15.03;;;;;;;-0.10;100.00;100754.28;1591862;90;21127;-76
2022/11/09 02:43:13;;;;;;;33.87;15.90;;;;;;;-0.10;100.00;100757.80;1591728;90;21063;-77
2022/11/09 02:45:40;;;;;;;36.53;15.63;;;;;;;-0.07;100.00;100752.31;1564921;91;21044;-77
2022/11/09 02:48:08;;;;;;;37.43;16.43;;;;;;;-0.03;100.00;100761.83;1572311;90;21051;-77
2022/11/09 02:50:36;;;;;;;33.73;15.30;;;;;;;-0.02;100.00;100759.56;1582196;90;21070;-78
2022/11/09 02:53:05;;;;;;;36.40;14.67;;;;;;;0.01;100.00;100752.36;1595189;90;21070;-77
2022/11/09 02:55:35;;;;;;;34.83;14.47;;;;;;;-0.01;100.00;100749.78;1595377;90;21210;-76
2022/11/09 02:58:02;;;;;;;35.73;14.93;;;;;;;0.01;100.00;100756.34;1565690;92;21131;-77
2022/11/09 03:00:29;;;;;;;34.90;14.47;;;;;;;-0.01;100.00;100754.61;1565305;92;21106;-77
2022/11/09 03:02:56;;;;;;;33.20;14.70;;;;;;;-0.03;100.00;100759.17;1639472;87;21053;-76
2022/11/09 03:05:23;;;;;;;37.73;15.10;;;;;;;-0.05;100.00;100752.23;1643568;87;21045;-76
2022/11/09 03:07:52;;;;;;;34.40;14.63;;;;;;;-0.06;100.00;100750.50;1642771;87;21130;-76
2022/11/09 03:10:19;;;;;;;44.93;18.73;;;;;;;-0.08;100.00;100749.26;1638395;87;21086;-76
2022/11/09 03:12:47;;;;;;;37.13;15.73;;;;;;;-0.09;100.00;100750.22;1633319;87;21122;-75
2022/11/09 03:15:15;;;;;;;36.07;14.57;;;;;;;-0.14;100.00;100753.59;1633217;88;21110;-77
2022/11/09 03:17:45;;;;;;;37.40;15.53;;;;;;;-0.13;100.00;100762.42;1632893;88;21094;-76
2022/11/09 03:20:13;;;;;;;34.10;15.20;;;;;;;-0.10;100.00;100756.47;1633360;87;21052;-77
2022/11/09 03:22:41;;;;;;;36.93;14.00;;;;;;;-0.06;100.00;100761.98;1605796;88;21106;-77
2022/11/09 03:25:08;;;;;;;37.83;14.93;;;;;;;-0.03;100.00;100753.84;1660557;85;21157;-76
2022/11/09 03:27:37;;;;;;;34.87;14.73;;;;;;;0.01;100.00;100761.19;1686721;85;21109;-75
2022/11/09 03:30:07;;;;;;;35.37;14.10;;;;;;;-0.02;100.00;100758.69;1686040;85;21564;-76
2022/11/09 03:32:35;;;;;;;37.30;14.07;;;;;;;0.00;100.00;100766.13;1685775;85;21058;-75
2022/11/09 03:35:03;;;;;;;34.33;13.83;;;;;;;-0.03;100.00;100763.16;1686093;85;21070;-76
2022/11/09 03:37:31;;;;;;;34.27;14.40;;;;;;;-0.02;100.00;100764.00;1685731;85;21043;-77
2022/11/09 03:39:59;;;;;;;29.90;12.70;;;;;;;0.00;100.00;100771.45;1685632;85;21007;-77
2022/11/09 03:42:27;;;;;;;32.73;12.57;;;;;;;0.01;100.00;100763.84;1685719;85;21027;-77
2022/11/09 03:44:54;;;;;;;32.40;13.53;;;;;;;0.04;100.00;100761.50;1685919;85;21026;-76
2022/11/09 03:47:20;;;;;;;31.63;12.90;;;;;;;0.06;100.00;100768.43;1685878;85;21050;-76
2022/11/09 03:49:48;;;;;;;33.13;14.87;;;;;;;0.05;100.00;100770.69;1685900;85;20994;-76
2022/11/09 03:52:15;;;;;;;31.93;12.90;;;;;;;0.07;100.00;100767.95;1685725;85;21059;-75
2022/11/09 03:54:43;;;;;;;29.97;13.03;;;;;;;0.10;100.00;100775.28;1685785;85;21055;-75
2022/11/09 03:57:10;;;;;;;34.67;13.90;;;;;;;0.09;100.00;100776.25;1686129;85;21031;-76
2022/11/09 03:59:38;;;;;;;31.50;12.43;;;;;;;0.09;100.00;100784.67;1685801;85;21549;-77
2022/11/09 04:02:06;;;;;;;31.57;12.87;;;;;;;0.12;100.00;100799.14;1685874;85;21600;-76
2022/11/09 04:04:33;;;;;;;30.57;11.83;;;;;;;0.13;100.00;100800.39;1666185;85;21548;-76
2022/11/09 04:07:00;;;;;;;36.63;12.33;;;;;;;0.15;100.00;100802.48;1686236;85;21058;-76
2022/11/09 04:09:26;;;;;;;32.60;13.17;;;;;;;0.20;100.00;100806.23;1685791;85;21484;-76
2022/11/09 04:11:54;;;;;;;36.13;13.90;;;;;;;0.22;100.00;100808.81;1669104;85;21065;-77
2022/11/09 04:14:21;;;;;;;41.47;14.63;;;;;;;0.25;100.00;100812.60;1664876;86;21042;-76
2022/11/09 04:16:48;;;;;;;37.97;13.13;;;;;;;0.25;100.00;100813.48;1664941;86;21038;-77
2022/11/09 04:19:16;;;;;;;34.17;13.40;;;;;;;0.27;100.00;100818.24;1664554;86;21045;-76
2022/11/09 04:21:44;;;;;;;41.60;15.40;;;;;;;0.28;100.00;100817.76;1664970;85;21081;-77
2022/11/09 04:24:13;;;;;;;35.13;13.53;;;;;;;0.26;100.00;100816.52;1664569;86;21395;-76
2022/11/09 04:26:39;;;;;;;39.17;13.93;;;;;;;0.24;100.00;100817.07;1664868;86;21002;-77
2022/11/09 04:29:06;;;;;;;36.33;14.10;;;;;;;0.27;100.00;100822.23;1664458;86;21034;-75
2022/11/09 04:31:33;;;;;;;33.70;14.27;;;;;;;0.29;100.00;100817.67;1664698;86;21591;-77
2022/11/09 04:33:59;;;;;;;43.07;16.47;;;;;;;0.32;100.00;100826.83;1664782;86;20990;-76
2022/11/09 04:36:27;;;;;;;37.70;14.50;;;;;;;0.36;100.00;100825.70;1664471;86;21054;-76
2022/11/09 04:38:54;;;;;;;45.20;17.37;;;;;;;0.40;100.00;100836.17;1664974;86;21049;-76
2022/11/09 04:41:20;;;;;;;52.07;19.73;;;;;;;0.43;100.00;100841.33;1664725;86;21101;-75
2022/11/09 04:43:47;;;;;;;48.23;19.63;;;;;;;0.41;100.00;100846.73;1668443;85;21019;-77
2022/11/09 04:46:14;;;;;;;39.17;15.33;;;;;;;0.38;100.00;100850.41;1650556;87;21098;-76
2022/11/09 04:48:42;;;;;;;40.80;15.57;;;;;;;0.36;100.00;100845.66;1637016;88;21031;-76
2022/11/09 04:51:10;;;;;;;42.27;15.27;;;;;;;0.37;100.00;100853.16;1690909;85;21055;-76
2022/11/09 04:53:37;;;;;;;40.67;16.13;;;;;;;0.33;100.00;100848.47;1690783;85;21026;-76
2022/11/09 04:56:05;;;;;;;46.40;16.27;;;;;;;0.34;100.00;100845.36;1690824;85;21101;-76
2022/11/09 04:58:32;;;;;;;42.43;16.17;;;;;;;0.36;100.00;100854.97;1690591;85;21070;-75
2022/11/09 05:01:07;;;;;;;41.03;15.57;;;;;;;0.39;100.00;100856.61;1690733;84;21054;-78
2022/11/09 05:03:35;;;;;;;39.33;14.27;;;;;;;0.43;100.00;100855.48;1650454;87;21572;-76
2022/11/09 05:06:30;;;;;;;37.40;13.87;;;;;;;0.46;100.00;100860.64;1636687;86;21109;-74
2022/11/09 05:08:30;;;;;;;43.83;16.07;;;;;;;0.49;100.00;100867.58;1686833;85;21037;-77
2022/11/09 05:10:59;;;;;;;37.27;15.77;;;;;;;0.50;100.00;100870.64;1690847;83;21027;-75
2022/11/09 05:13:25;;;;;;;42.00;18.20;;;;;;;0.51;100.00;100876.33;1691523;85;21038;-75
2022/11/09 05:15:51;;;;;;;41.30;16.50;;;;;;;0.53;100.00;100873.11;1691521;85;21560;-77
2022/11/09 05:18:18;;;;;;;40.57;16.70;;;;;;;0.54;100.00;100880.16;1691559;85;21035;-75
2022/11/09 05:20:45;;;;;;;43.93;16.37;;;;;;;0.59;100.00;100885.23;1682182;85;21043;-75
2022/11/09 05:25:56;;;;;;;38.13;16.03;;;;;;;0.64;100.00;100883.15;1657170;87;21059;-75
2022/11/09 05:28:23;;;;;;;41.67;16.60;;;;;;;0.67;100.00;100886.49;1657426;87;21007;-75
2022/11/09 05:30:49;;;;;;;44.10;17.13;;;;;;;0.69;100.00;100896.61;1710335;84;21013;-76
2022/11/09 05:33:16;;;;;;;39.97;16.47;;;;;;;0.69;100.00;100896.61;1710488;84;21040;-76
2022/11/09 05:35:43;;;;;;;38.27;14.83;;;;;;;0.70;100.00;100899.64;1710402;84;21045;-76
2022/11/09 05:38:10;;;;;;;38.00;15.23;;;;;;;0.68;100.00;100898.88;1710527;84;21052;-75
2022/11/09 05:40:38;;;;;;;35.10;14.50;;;;;;;0.68;100.00;100891.37;1710555;84;21013;-75
2022/11/09 05:43:05;;;;;;;38.33;15.00;;;;;;;0.71;100.00;100899.19;1710828;84;21109;-75
2022/11/09 05:45:32;;;;;;;37.33;14.13;;;;;;;0.75;100.00;100902.91;1694061;84;20999;-76
2022/11/09 05:47:58;;;;;;;43.30;17.23;;;;;;;0.77;100.00;100911.29;1693694;84;21102;-75
2022/11/09 05:50:25;;;;;;;47.50;19.57;;;;;;;0.79;100.00;100906.25;1677794;85;21071;-78
2022/11/09 05:52:57;;;;;;;51.80;22.60;;;;;;;0.82;100.00;100906.08;1674057;85;21066;-76
2022/11/09 05:55:24;;;;;;;56.03;22.80;;;;;;;0.85;100.00;100908.58;1667348;85;21043;-75
2022/11/09 05:57:51;;;;;;;50.93;22.07;;;;;;;0.88;100.00;100911.52;1686521;85;21058;-75
2022/11/09 06:00:19;;;;;;;50.87;20.07;;;;;;;0.89;100.00;100909.27;1693274;85;21027;-76
2022/11/09 06:02:46;;;;;;;43.13;17.50;;;;;;;0.89;100.00;100900.79;1693597;84;21028;-76
2022/11/09 06:05:13;;;;;;;41.97;17.47;;;;;;;0.90;100.00;100898.52;1693336;85;21027;-76
2022/11/09 06:07:40;;;;;;;43.70;17.20;;;;;;;0.91;100.00;100900.70;1693217;85;21050;-76
2022/11/09 06:10:08;;;;;;;39.77;16.47;;;;;;;0.94;100.00;100897.87;1681123;85;21097;-75
2022/11/09 06:12:35;;;;;;;39.20;15.63;;;;;;;0.94;100.00;100899.20;1641537;87;21106;-74
2022/11/09 06:15:05;;;;;;;29.47;11.90;;;;;;;0.93;100.00;100900.98;1679407;84;21806;-75
2022/11/09 06:17:33;;;;;;;27.77;12.13;;;;;;;0.92;100.00;100895.75;1669644;86;21093;-75
2022/11/09 06:20:00;;;;;;;41.13;14.00;;;;;;;0.93;100.00;100893.48;1669579;86;21138;-76
2022/11/09 06:22:27;;;;;;;34.40;13.67;;;;;;;0.95;100.00;100903.56;1670000;86;21021;-74
2022/11/09 06:24:53;;;;;;;38.87;14.13;;;;;;;0.98;100.00;100902.55;1669970;86;21077;-76
2022/11/09 06:27:21;;;;;;;37.30;14.60;;;;;;;1.03;100.00;100907.14;1670880;86;21049;-76
2022/11/09 06:29:48;;;;;;;34.47;14.90;;;;;;;1.07;100.00;100903.34;1671300;82;21053;-75
2022/11/09 06:32:15;;;;;;;32.90;14.27;;;;;;;1.13;100.00;100900.30;1671053;82;21049;-75
2022/11/09 06:34:47;;;;;;;35.97;14.63;;;;;;;1.19;100.00;100900.42;1669745;85;21061;-75
2022/11/09 06:37:15;;;;;;;37.63;16.57;;;;;;;1.25;100.00;100905.41;1669029;86;21053;-75
2022/11/09 06:39:42;;;;;;;38.33;15.27;;;;;;;1.26;100.00;100903.14;1669020;86;21620;-72
2022/11/09 06:42:09;;;;;;;39.53;17.67;;;;;;;1.33;100.00;100901.34;1669114;86;21064;-76
2022/11/09 06:44:36;;;;;;;40.40;17.30;;;;;;;1.34;100.00;100900.86;1670192;86;21017;-76
2022/11/09 06:47:03;;;;;;;37.40;16.60;;;;;;;1.36;100.00;100902.95;1667349;80;21074;-75
2022/11/09 06:49:30;;;;;;;41.40;16.70;;;;;;;1.38;100.00;100900.20;1704585;83;21022;-73
2022/11/09 06:51:56;;;;;;;38.53;16.80;;;;;;;1.37;100.00;100894.50;1729648;82;21093;-74
2022/11/09 06:54:24;;;;;;;34.60;14.83;;;;;;;1.37;100.00;100890.51;1698566;83;21047;-73
2022/11/09 06:56:54;;;;;;;35.57;13.77;;;;;;;1.42;100.00;100891.09;1682472;85;21653;-71
2022/11/09 06:59:21;;;;;;;35.50;12.90;;;;;;;1.46;100.00;100894.80;1693928;83;21070;-75
2022/11/09 07:01:49;;;;;;;36.47;15.00;;;;;;;1.50;100.00;100884.81;1686132;85;21022;-77
2022/11/09 07:04:16;;;;;;;38.70;14.97;;;;;;;1.56;100.00;100888.91;1688984;83;21037;-75
2022/11/09 07:06:44;;;;;;;47.40;17.97;;;;;;;1.60;100.00;100885.98;1654934;86;21066;-74
2022/11/09 07:09:11;;;;;;;50.47;19.47;;;;;;;1.64;100.00;100880.83;1720010;83;21464;-74
2022/11/09 07:11:39;;;;;;;44.63;17.07;;;;;;;1.69;100.00;100888.56;1668484;84;21030;-74
2022/11/09 07:14:06;;;;;;;47.43;19.73;;;;;;;1.77;100.00;100886.75;1682174;85;21031;-75
2022/11/09 07:16:33;;;;;;;47.33;19.83;;;;;;;1.80;100.00;100882.58;1683087;85;21524;-75
2022/11/09 07:19:01;;;;;;;37.10;17.13;;;;;;;1.82;100.00;100884.18;1694505;83;21006;-80
2022/11/09 07:21:29;;;;;;;35.37;16.23;;;;;;;1.88;100.00;100882.98;1694023;85;21546;-78
2022/11/09 07:23:56;;;;;;;37.00;17.23;;;;;;;1.95;100.00;100886.09;1667970;86;21085;-75
2022/11/09 07:26:26;;;;;;;42.63;18.57;;;;;;;2.00;100.00;100880.88;1689359;85;21605;-71
2022/11/09 07:28:55;;;;;;;37.47;17.60;;;;;;;2.02;100.00;100883.42;1690419;85;21055;-76
2022/11/09 07:31:22;;;;;;;34.67;15.93;;;;;;;2.05;100.00;100882.79;1690231;85;21107;-75
2022/11/09 07:33:50;;;;;;;33.67;13.53;;;;;;;2.07;100.00;100879.55;1690457;85;21624;-75
2022/11/09 07:36:18;;;;;;;31.10;13.77;;;;;;;2.10;100.00;100877.14;1690542;85;21067;-77
2022/11/09 07:38:46;;;;;;;37.13;15.67;;;;;;;2.15;100.00;100877.72;1690584;85;21240;-74
2022/11/09 07:41:13;;;;;;;42.27;14.47;;;;;;;2.18;100.00;100873.98;1669134;86;21003;-75
2022/11/09 07:43:41;;;;;;;36.37;14.80;;;;;;;2.19;100.00;100872.56;1690631;85;21044;-74
2022/11/09 07:46:08;;;;;;;37.97;15.00;;;;;;;2.24;100.00;100870.46;1677326;85;21095;-72
2022/11/09 07:48:36;;;;;;;33.40;14.97;;;;;;;2.31;100.00;100866.08;1652512;85;21159;-73
2022/11/09 07:51:03;;;;;;;37.67;15.73;;;;;;;2.34;100.00;100868.08;1621534;88;21047;-73
2022/11/09 07:53:31;;;;;;;36.77;15.03;;;;;;;2.39;100.00;100854.42;1659345;86;21036;-74
2022/11/09 07:56:01;;;;;;;38.73;14.83;;;;;;;2.46;100.00;100857.07;1649433;87;21044;-74
2022/11/09 07:58:29;;;;;;;38.73;15.57;;;;;;;2.54;100.00;100854.77;1650041;87;21052;-74
2022/11/09 08:00:58;;;;;;;29.33;13.43;;;;;;;2.64;100.00;100857.72;1649584;87;21064;-74
2022/11/09 08:03:24;;;;;;;37.53;15.70;;;;;;;2.73;100.00;100857.11;1650173;87;21019;-76
2022/11/09 08:05:52;;;;;;;35.90;16.87;;;;;;;2.82;100.00;100856.98;1650271;87;20993;-76
2022/11/09 08:08:20;;;;;;;40.10;17.47;;;;;;;2.89;100.00;100852.95;1649630;87;20977;-74
2022/11/09 08:10:51;;;;;;;49.03;17.50;;;;;;;2.95;100.00;100845.84;1650253;87;21035;-73
2022/11/09 08:13:17;;;;;;;37.20;15.97;;;;;;;3.01;100.00;100848.13;1628425;88;21580;-75
2022/11/09 08:15:44;;;;;;;37.77;15.63;;;;;;;3.03;100.00;100844.02;1671447;85;20955;-74
2022/11/09 08:18:14;;;;;;;40.50;15.77;;;;;;;3.07;100.00;100840.17;1664375;85;21099;-74
2022/11/09 08:20:41;;;;;;;38.27;15.43;;;;;;;3.12;100.00;100835.87;1658017;85;21006;-77
2022/11/09 08:23:12;;;;;;;31.80;13.83;;;;;;;3.19;100.00;100833.16;1664781;85;21047;-78
2022/11/09 08:25:40;;;;;;;36.43;15.73;;;;;;;3.26;100.00;100827.77;1634439;86;21023;-77
2022/11/09 08:28:07;;;;;;;49.93;23.03;;;;;;;3.33;100.00;100818.82;1611892;87;21031;-77
2022/11/09 08:30:34;;;;;;;49.77;22.90;;;;;;;3.35;100.00;100811.09;1588016;89;21065;-78
2022/11/09 08:33:02;;;;;;;43.53;20.77;;;;;;;3.39;100.00;100793.02;1635687;87;21067;-78
2022/11/09 08:35:30;;;;;;;40.83;19.67;;;;;;;3.43;100.00;100791.83;1611808;88;21524;-77
2022/11/09 08:38:01;;;;;;;41.73;20.13;;;;;;;3.45;100.00;100777.87;1672495;86;21035;-80
2022/11/09 08:40:29;;;;;;;37.97;18.30;;;;;;;3.48;100.00;100763.45;1652628;86;21038;-75
2022/11/09 08:43:03;;;;;;;37.37;16.93;;;;;;;3.52;100.00;100755.58;1637121;88;21043;-75
2022/11/09 08:45:35;;;;;;;36.63;16.20;;;;;;;3.56;100.00;100742.35;1654709;86;21274;-77
2022/11/09 08:48:03;;;;;;;40.63;17.33;;;;;;;3.64;100.00;100738.66;1621004;85;21114;-78
2022/11/09 08:50:33;;;;;;;42.23;18.97;;;;;;;3.70;100.00;100731.55;1626976;88;21028;-79
2022/11/09 08:53:01;;;;;;;43.50;17.67;;;;;;;3.76;100.00;100720.89;1631010;86;21145;-74
2022/11/09 08:55:30;;;;;;;41.37;17.67;;;;;;;3.79;100.00;100708.15;1635055;86;21073;-71
2022/11/09 08:57:59;;;;;;;42.60;19.23;;;;;;;3.86;100.00;100696.98;1609593;88;21174;-74
2022/11/09 09:00:27;;;;;;;52.80;23.90;;;;;;;3.97;100.00;100691.23;1617045;87;21060;-76
2022/11/09 09:02:55;;;;;;;50.33;23.33;;;;;;;4.05;100.00;100680.44;1624601;87;21037;-76
2022/11/09 09:05:22;;;;;;;48.13;22.77;;;;;;;4.10;100.00;100672.93;1615844;87;21094;-75
2022/11/09 09:07:48;;;;;;;42.63;21.20;;;;;;;4.16;100.00;100663.97;1617506;87;21115;-77
2022/11/09 09:10:15;;;;;;;41.60;20.17;;;;;;;4.27;100.00;100647.59;1609957;89;21123;-76
2022/11/09 09:12:45;;;;;;;54.37;25.20;;;;;;;4.34;100.00;100647.00;1605426;89;21056;-78
2022/11/09 09:15:15;;;;;;;137.52;47.25;;;;;;;4.43;100.00;100641.93;1614371;89;21579;-78
2022/11/09 09:17:43;;;;;;;62.00;29.63;;;;;;;4.49;100.00;100630.23;1605333;89;21072;-77
2022/11/09 09:20:18;;;;;;;62.57;26.20;;;;;;;4.55;100.00;100616.86;1605656;89;21084;-78
2022/11/09 09:22:44;;;;;;;43.73;19.20;;;;;;;4.63;100.00;100603.73;1640346;86;21068;-77
2022/11/09 09:25:14;;;;;;;44.53;18.47;;;;;;;4.73;100.00;100599.87;1668683;86;21091;-78
2022/11/09 09:27:43;;;;;;;39.47;18.67;;;;;;;4.73;100.00;100581.96;1662901;86;21088;-71
2022/11/09 09:30:12;;;;;;;34.70;16.40;;;;;;;4.80;100.00;100570.75;1669115;86;20967;-75
2022/11/09 09:32:39;;;;;;;33.17;15.53;;;;;;;4.88;100.00;100556.27;1687117;84;21191;-74
2022/11/09 09:35:08;;;;;;;45.33;20.00;;;;;;;5.00;100.00;100552.61;1688119;84;20997;-77
2022/11/09 09:37:35;;;;;;;47.27;20.90;;;;;;;5.05;100.00;100534.84;1697154;83;21015;-75
2022/11/09 09:40:02;;;;;;;37.27;17.90;;;;;;;5.11;100.00;100527.63;1712689;83;21029;-78
2022/11/09 09:42:34;;;;;;;37.60;18.70;;;;;;;5.17;100.00;100516.89;1715485;84;21105;-77
2022/11/09 09:45:20;;;;;;;32.60;16.17;;;;;;;5.18;100.00;100510.56;1715550;83;21046;-74
2022/11/09 09:48:21;;;;;;;35.80;15.47;;;;;;;5.21;100.00;100500.94;1707422;84;21058;-80
2022/11/09 09:50:53;;;;;;;34.38;16.65;;;;;;;5.25;100.00;100498.36;1666912;86;21143;-78
2022/11/09 09:53:32;;;;;;;49.93;20.37;;;;;;;5.27;100.00;100489.20;1668130;86;21065;-79
2022/11/09 09:56:11;;;;;;;48.50;20.50;;;;;;;5.27;100.00;100475.79;1668359;86;21054;-76
2022/11/09 09:58:44;;;;;;;37.90;17.57;;;;;;;5.35;100.00;100465.80;1602411;88;21062;-76
2022/11/09 10:01:19;;;;;;;39.08;17.52;;;;;;;5.46;100.00;100459.03;1580056;89;21092;-77
2022/11/09 10:03:47;;;;;;;31.83;14.80;;;;;;;5.52;100.00;100444.25;1580032;89;21081;-76
2022/11/09 10:07:03;;;;;;;29.67;13.97;;;;;;;5.42;100.00;100437.95;1579922;89;21165;-77
2022/11/09 10:09:46;;;;;;;33.13;14.00;;;;;;;5.37;100.00;100430.31;1582659;88;21631;-76
2022/11/09 10:12:28;;;;;;;30.03;13.10;;;;;;;5.31;100.00;100417.40;1581478;89;21518;-77
2022/11/09 10:15:04;;;;;;;30.40;13.43;;;;;;;5.25;100.00;100412.56;1521947;92;21104;-82
2022/11/09 10:18:09;;;;;;;29.97;13.03;;;;;;;5.21;100.00;100407.10;1526657;94;21112;-80
2022/11/09 10:20:54;;;;;;;29.53;13.27;;;;;;;5.19;100.00;100407.23;1527917;94;21352;-77
2022/11/09 10:23:27;;;;;;;25.30;12.97;;;;;;;5.23;100.00;100412.69;1531569;92;21051;-79
2022/11/09 10:26:01;;;;;;;30.92;13.72;;;;;;;5.22;100.00;100410.97;1524381;92;21536;-80
2022/11/09 10:28:29;;;;;;;30.13;14.40;;;;;;;5.20;100.00;100416.11;1490922;95;21142;-79
2022/11/09 10:30:59;;;;;;;33.83;15.03;;;;;;;5.19;100.00;100419.75;1497461;93;21114;-81
2022/11/09 10:33:27;;;;;;;28.67;13.67;;;;;;;5.22;100.00;100434.25;1498760;95;21102;-78
2022/11/09 10:36:12;;;;;;;32.10;14.53;;;;;;;5.20;100.00;100440.23;1498752;96;21168;-81
2022/11/09 10:38:45;;;;;;;27.50;13.53;;;;;;;5.21;100.00;100441.95;1485841;95;21110;-76
2022/11/09 10:41:35;;;;;;;31.53;15.33;;;;;;;5.21;100.00;100446.82;1480019;97;21106;-75
2022/11/09 10:44:23;;;;;;;31.77;15.77;;;;;;;5.16;100.00;100455.73;1476081;95;21106;-77
2022/11/09 10:47:15;;;;;;;29.10;14.10;;;;;;;5.10;100.00;100461.60;1460295;96;22053;-77
2022/11/09 10:50:20;;;;;;;35.20;16.73;;;;;;;5.08;100.00;100474.25;1506841;94;21116;-74
2022/11/09 10:53:18;;;;;;;29.93;14.97;;;;;;;5.05;100.00;100479.89;1506359;95;21100;-74
2022/11/09 10:56:17;;;;;;;31.57;14.60;;;;;;;4.99;100.00;100484.39;1517973;94;21089;-73
2022/11/09 10:59:02;;;;;;;29.83;15.00;;;;;;;4.95;100.00;100481.95;1501965;94;21097;-74
2022/11/09 11:01:47;;;;;;;27.27;13.27;;;;;;;4.95;100.00;100492.67;1439582;99;21119;-79
2022/11/09 11:04:33;;;;;;;30.17;13.93;;;;;;;4.99;100.00;100493.77;1455971;98;21115;-76
2022/11/09 11:07:20;;;;;;;26.33;12.47;;;;;;;5.04;100.00;100492.91;1508612;95;21118;-77
2022/11/09 11:10:21;;;;;;;29.67;13.93;;;;;;;5.09;100.00;100496.08;1467112;97;21120;-76
2022/11/09 11:13:14;;;;;;;29.80;13.17;;;;;;;5.11;100.00;100495.45;1553986;92;21098;-75
2022/11/09 11:15:59;;;;;;;28.90;12.93;;;;;;;5.09;100.00;100504.12;1573673;90;21082;-79
2022/11/09 11:18:47;;;;;;;33.70;15.20;;;;;;;5.03;100.00;100505.47;1601955;89;21090;-84
2022/11/09 11:21:33;;;;;;;32.67;14.77;;;;;;;5.05;100.00;100498.65;1581229;91;21084;-79
2022/11/09 11:24:19;;;;;;;33.80;15.03;;;;;;;5.08;100.00;100505.95;1611702;89;21157;-77